createdAt,value
2022-11-26T00:02:22.138Z,100463.41
2022-11-26T00:07:29.417Z,100449.75
2022-11-26T00:12:35.747Z,100444.66
2022-11-26T00:17:39.126Z,100450.50
2022-11-26T00:22:44.754Z,100451.19
2022-11-26T00:27:50.521Z,100450.41
2022-11-26T00:32:54.569Z,100448.53
2022-11-26T00:37:59.519Z,100457.16
2022-11-26T00:43:04.133Z,100458.44
2022-11-26T00:48:07.439Z,100462.13
2022-11-26T00:53:15.303Z,100465.09
2022-11-26T00:58:26.160Z,100465.22
2022-11-26T01:03:29.689Z,100467.53
2022-11-26T01:08:35.654Z,100471.63
2022-11-26T01:13:40.294Z,100470.06
2022-11-26T01:18:43.425Z,100469.69
2022-11-26T01:23:46.823Z,100488.94
2022-11-26T01:28:51.947Z,100479.78
2022-11-26T01:33:56.172Z,100481.66
2022-11-26T01:39:01.671Z,100476.78
2022-11-26T01:44:14.707Z,100480.75
2022-11-26T01:49:21.240Z,100475.25
2022-11-26T01:54:24.619Z,100467.50
2022-11-26T01:59:34.077Z,100473.13
2022-11-26T02:04:40.857Z,100462.44
2022-11-26T02:09:45.034Z,100477.34
2022-11-26T02:14:50.064Z,100478.41
2022-11-26T02:20:32.202Z,100472.50
2022-11-26T02:25:55.341Z,100475.22
2022-11-26T02:31:08.612Z,100478.41
2022-11-26T02:36:17.231Z,100486.19
2022-11-26T02:41:20.798Z,100484.38
2022-11-26T02:46:25.673Z,100494.44
2022-11-26T02:51:34.740Z,100493.75
2022-11-26T02:56:41.103Z,100491.63
2022-11-26T03:01:53.649Z,100487.38
2022-11-26T03:06:59.652Z,100497.28
2022-11-26T03:12:03.053Z,100500.16
2022-11-26T03:17:07.847Z,100498.25
2022-11-26T03:22:10.727Z,100509.22
2022-11-26T03:27:14.006Z,100510.56
2022-11-26T03:32:18.568Z,100516.78
2022-11-26T03:37:21.811Z,100530.72
2022-11-26T03:42:25.124Z,100527.69
2022-11-26T03:47:29.866Z,100527.59
2022-11-26T03:52:33.155Z,100529.53
2022-11-26T03:57:36.690Z,100521.84
2022-11-26T04:02:41.493Z,100526.56
2022-11-26T04:07:44.817Z,100530.88
2022-11-26T04:12:48.143Z,100530.78
2022-11-26T04:17:53.164Z,100533.28
2022-11-26T04:22:56.476Z,100535.97
2022-11-26T04:27:59.717Z,100528.47
2022-11-26T04:33:04.468Z,100530.25
2022-11-26T04:38:07.429Z,100532.06
2022-11-26T04:43:10.756Z,100531.13
2022-11-26T04:48:15.495Z,100538.00
2022-11-26T04:53:22.062Z,100533.88
2022-11-26T04:58:25.481Z,100538.06
2022-11-26T05:03:30.079Z,100544.69
2022-11-26T05:08:33.289Z,100537.28
2022-11-26T05:13:36.612Z,100544.00
2022-11-26T05:18:41.240Z,100542.06
2022-11-26T05:23:44.299Z,100551.47
2022-11-26T05:28:47.475Z,100542.50
2022-11-26T05:33:52.217Z,100554.63
2022-11-26T05:38:55.135Z,100550.78
2022-11-26T05:43:58.454Z,100562.59
2022-11-26T05:49:03.151Z,100574.69
2022-11-26T05:54:07.572Z,100579.44
2022-11-26T05:59:11.290Z,100574.50
2022-11-26T06:04:16.000Z,100581.78
2022-11-26T06:09:19.225Z,100585.91
2022-11-26T06:14:22.669Z,100598.53
2022-11-26T06:19:27.550Z,100588.81
2022-11-26T06:24:30.805Z,100596.41
2022-11-26T06:29:34.158Z,100597.81
2022-11-26T06:34:39.178Z,100603.28
2022-11-26T06:39:42.973Z,100601.31
2022-11-26T06:44:46.636Z,100611.88
2022-11-26T06:49:51.221Z,100621.50
2022-11-26T06:54:54.419Z,100624.56
2022-11-26T06:59:57.696Z,100625.03
2022-11-26T07:05:02.271Z,100631.78
2022-11-26T07:10:09.285Z,100630.47
2022-11-26T07:15:13.527Z,100611.81
2022-11-26T07:20:18.169Z,100633.91
2022-11-26T07:25:21.541Z,100632.00
2022-11-26T07:30:24.845Z,100633.53
2022-11-26T07:35:29.497Z,100642.56
2022-11-26T07:40:32.712Z,100648.66
2022-11-26T07:45:38.664Z,100631.31
2022-11-26T07:50:46.175Z,100644.34
2022-11-26T07:55:49.479Z,100633.28
2022-11-26T08:00:54.782Z,100654.78
2022-11-26T08:05:59.771Z,100651.41
2022-11-26T08:11:02.763Z,100653.00
2022-11-26T08:16:06.659Z,100652.00
2022-11-26T08:21:11.486Z,100646.88
2022-11-26T08:26:29.324Z,100635.03
2022-11-26T08:31:41.064Z,100649.06
2022-11-26T08:36:48.398Z,100652.50
2022-11-26T08:41:52.707Z,100663.31
2022-11-26T08:46:56.283Z,100654.53
2022-11-26T08:52:00.933Z,100654.66
2022-11-26T08:57:05.816Z,100644.06
2022-11-26T09:02:10.049Z,100653.06
2022-11-26T09:07:15.081Z,100647.28
2022-11-26T09:12:18.324Z,100648.44
2022-11-26T09:17:21.648Z,100646.69
2022-11-26T09:22:26.376Z,100658.31
2022-11-26T09:27:29.389Z,100657.38
2022-11-26T09:32:34.651Z,100661.50
2022-11-26T09:37:39.436Z,100662.44
2022-11-26T09:42:48.450Z,100669.34
2022-11-26T09:47:55.342Z,100664.03
2022-11-26T09:53:03.626Z,100665.28
2022-11-26T09:58:13.425Z,100660.81
2022-11-26T10:03:18.611Z,100655.84
2022-11-26T10:08:42.423Z,100665.13
2022-11-26T10:13:50.554Z,100665.47
2022-11-26T10:19:03.940Z,100668.41
2022-11-26T10:24:17.351Z,100667.75
2022-11-26T10:29:25.009Z,100668.28
2022-11-26T10:34:39.485Z,100660.44
2022-11-26T10:39:45.132Z,100662.00
2022-11-26T10:44:49.814Z,100662.06
2022-11-26T10:49:54.777Z,100660.50
2022-11-26T10:55:25.964Z,100666.25
2022-11-26T11:00:38.028Z,100667.50
2022-11-26T11:05:44.268Z,100673.81
2022-11-26T11:10:57.085Z,100672.25
2022-11-26T11:16:03.512Z,100668.75
2022-11-26T11:21:07.803Z,100667.13
2022-11-26T11:26:19.209Z,100675.03
2022-11-26T11:31:24.055Z,100670.25
2022-11-26T11:36:29.544Z,100672.22
2022-11-26T11:41:40.451Z,100686.38
2022-11-26T11:46:59.938Z,100682.78
2022-11-26T11:52:16.809Z,100684.78
2022-11-26T11:57:32.205Z,100678.50
2022-11-26T12:03:02.298Z,100685.34
2022-11-26T12:08:18.136Z,100674.69
2022-11-26T12:13:25.757Z,100675.19
2022-11-26T12:18:34.445Z,100672.16
2022-11-26T12:23:46.162Z,100675.78
2022-11-26T12:28:59.555Z,100674.44
2022-11-26T12:34:11.533Z,100686.19
2022-11-26T12:39:20.310Z,100673.72
2022-11-26T12:44:32.706Z,100681.94
2022-11-26T12:49:44.660Z,100684.75
2022-11-26T12:54:54.861Z,100675.88
2022-11-26T13:00:06.421Z,100680.59
2022-11-26T13:05:19.507Z,100689.41
2022-11-26T13:10:35.058Z,100676.88
2022-11-26T13:15:44.495Z,100684.00
2022-11-26T13:21:06.912Z,100680.19
2022-11-26T13:26:26.465Z,100682.66
2022-11-26T13:31:49.974Z,100688.53
2022-11-26T13:37:22.415Z,100669.81
2022-11-26T13:42:51.631Z,100690.59
2022-11-26T13:48:01.269Z,100673.44
2022-11-26T13:53:07.957Z,100670.78
2022-11-26T13:58:19.450Z,100677.28
2022-11-26T14:03:53.941Z,100689.66
2022-11-26T14:08:58.041Z,100699.31
2022-11-26T14:14:31.073Z,100700.09
2022-11-26T14:20:00.114Z,100696.50
2022-11-26T14:25:09.053Z,100705.72
2022-11-26T14:30:22.200Z,100700.22
2022-11-26T14:35:34.047Z,100694.03
2022-11-26T14:40:39.865Z,100704.47
2022-11-26T14:45:44.459Z,100703.03
2022-11-26T14:50:49.600Z,100713.34
2022-11-26T14:55:54.380Z,100699.22
2022-11-26T15:01:08.525Z,100703.78
2022-11-26T15:06:27.001Z,100699.47
2022-11-26T15:11:31.653Z,100692.38
2022-11-26T15:16:37.800Z,100695.13
2022-11-26T15:21:43.411Z,100699.72
2022-11-26T15:26:48.188Z,100706.47
2022-11-26T15:31:52.070Z,100705.56
2022-11-26T15:36:56.819Z,100704.97
2022-11-26T15:42:03.538Z,100708.38
2022-11-26T15:47:07.081Z,100714.56
2022-11-26T15:52:15.617Z,100709.06
2022-11-26T15:57:27.362Z,100723.72
2022-11-26T16:02:32.299Z,100728.44
2022-11-26T16:07:38.969Z,100720.59
2022-11-26T16:12:45.050Z,100716.53
2022-11-26T16:17:49.532Z,100717.22
2022-11-26T16:22:57.028Z,100715.53
2022-11-26T16:28:14.309Z,100717.75
2022-11-26T16:33:17.985Z,100719.13
2022-11-26T16:38:27.870Z,100716.59
2022-11-26T16:43:34.417Z,100708.47
2022-11-26T16:48:37.978Z,100719.06
2022-11-26T16:53:43.732Z,100719.69
2022-11-26T16:58:47.474Z,100702.44
2022-11-26T17:03:50.981Z,100720.88
2022-11-26T17:08:58.008Z,100727.34
2022-11-26T17:14:01.395Z,100731.84
2022-11-26T17:19:05.222Z,100714.56
2022-11-26T17:24:10.354Z,100716.53
2022-11-26T17:29:15.237Z,100721.25
2022-11-26T17:34:18.902Z,100726.34
2022-11-26T17:39:23.931Z,100722.00
2022-11-26T17:44:27.633Z,100728.63
2022-11-26T17:49:31.141Z,100729.63
2022-11-26T17:54:36.341Z,100724.88
2022-11-26T17:59:40.289Z,100723.41
2022-11-26T18:04:44.180Z,100724.38
2022-11-26T18:09:49.143Z,100718.38
2022-11-26T18:14:52.869Z,100715.88
2022-11-26T18:19:57.015Z,100718.81
2022-11-26T18:25:01.934Z,100712.19
2022-11-26T18:30:07.113Z,100710.28
2022-11-26T18:35:11.923Z,100719.31
2022-11-26T18:40:18.833Z,100720.59
2022-11-26T18:45:22.314Z,100734.06
2022-11-26T18:50:25.621Z,100731.41
2022-11-26T18:55:30.934Z,100719.97
2022-11-26T19:00:34.357Z,100731.75
2022-11-26T19:05:39.039Z,100739.53
2022-11-26T19:10:43.977Z,100735.38
2022-11-26T19:15:47.839Z,100726.53
2022-11-26T19:20:53.323Z,100731.69
2022-11-26T19:25:58.475Z,100730.31
2022-11-26T19:31:04.575Z,100725.72
2022-11-26T19:36:10.611Z,100724.84
2022-11-26T19:41:15.525Z,100726.28
2022-11-26T19:46:22.109Z,100744.94
2022-11-26T19:51:28.041Z,100729.53
2022-11-26T19:56:33.725Z,100730.91
2022-11-26T20:01:37.426Z,100736.72
2022-11-26T20:06:41.431Z,100735.28
2022-11-26T20:11:46.225Z,100741.88
2022-11-26T20:16:50.204Z,100724.38
2022-11-26T20:21:53.513Z,100750.75
2022-11-26T20:26:58.640Z,100748.13
2022-11-26T20:32:02.003Z,100748.53
2022-11-26T20:37:05.324Z,100756.75
2022-11-26T20:42:11.966Z,100766.41
2022-11-26T20:47:15.239Z,100773.16
2022-11-26T20:52:19.737Z,100754.59
2022-11-26T20:57:24.566Z,100755.03
2022-11-26T21:02:28.517Z,100753.38
2022-11-26T21:07:31.920Z,100735.25
2022-11-26T21:12:38.190Z,100752.84
2022-11-26T21:17:41.787Z,100753.09
2022-11-26T21:22:45.371Z,100754.56
2022-11-26T21:27:55.477Z,100743.78
2022-11-26T21:33:00.552Z,100742.94
2022-11-26T21:38:06.814Z,100767.66
2022-11-26T21:43:11.315Z,100768.81
2022-11-26T21:48:14.769Z,100770.44
2022-11-26T21:53:18.085Z,100763.22
2022-11-26T21:58:22.728Z,100751.63
2022-11-26T22:03:25.825Z,100753.63
2022-11-26T22:08:29.137Z,100748.63
2022-11-26T22:13:33.944Z,100748.59
2022-11-26T22:18:38.314Z,100757.63
2022-11-26T22:23:41.990Z,100759.84
2022-11-26T22:28:46.892Z,100762.53
2022-11-26T22:33:51.259Z,100760.09
2022-11-26T22:38:54.706Z,100752.97
2022-11-26T22:44:01.143Z,100764.47
2022-11-26T22:49:06.378Z,100752.09
2022-11-26T22:54:13.313Z,100756.94
2022-11-26T22:59:18.044Z,100756.94
2022-11-26T23:04:20.984Z,100755.03
2022-11-26T23:09:24.416Z,100762.31
2022-11-26T23:14:29.161Z,100760.91
2022-11-26T23:19:32.489Z,100760.63
2022-11-26T23:24:36.246Z,100760.72
2022-11-26T23:29:41.042Z,100766.28
2022-11-26T23:34:44.327Z,100767.97
2022-11-26T23:39:47.527Z,100776.69
2022-11-26T23:44:52.382Z,100785.38
2022-11-26T23:49:59.707Z,100777.31
2022-11-26T23:55:04.229Z,100785.88
